createdAt,value
2019-05-29T00:00:30.189Z,2.70
2019-05-29T00:01:30.175Z,3.00
2019-05-29T00:02:30.162Z,2.40
2019-05-29T00:03:30.145Z,2.80
2019-05-29T00:04:30.142Z,2.80
2019-05-29T00:05:30.143Z,2.30
2019-05-29T00:06:30.135Z,3.20
2019-05-29T00:07:30.097Z,2.60
2019-05-29T00:08:30.100Z,2.70
2019-05-29T00:09:30.085Z,2.50
2019-05-29T00:10:30.063Z,3.00
2019-05-29T00:12:30.056Z,2.70
2019-05-29T00:13:30.029Z,2.90
2019-05-29T00:14:30.024Z,2.90
2019-05-29T00:16:30.007Z,3.30
2019-05-29T00:17:29.996Z,2.80
2019-05-29T00:18:41.693Z,2.90
2019-05-29T00:19:29.969Z,3.20
2019-05-29T00:20:29.955Z,3.20
2019-05-29T00:21:29.942Z,2.80
2019-05-29T00:22:29.939Z,2.90
2019-05-29T00:23:29.925Z,2.80
2019-05-29T00:24:29.917Z,3.20
2019-05-29T00:25:29.901Z,3.40
2019-05-29T00:26:29.897Z,3.20
2019-05-29T00:27:29.876Z,3.10
2019-05-29T00:28:29.876Z,3.40
2019-05-29T00:29:29.856Z,3.20
2019-05-29T00:30:29.846Z,3.20
2019-05-29T00:31:29.838Z,3.50
2019-05-29T00:32:29.840Z,3.30
2019-05-29T00:33:29.816Z,3.40
2019-05-29T00:34:29.809Z,3.30
2019-05-29T00:35:29.790Z,3.50
2019-05-29T00:36:29.789Z,3.30
2019-05-29T00:37:29.772Z,3.50
2019-05-29T00:38:29.771Z,3.40
2019-05-29T00:39:29.749Z,3.20
2019-05-29T00:40:29.740Z,3.50
2019-05-29T00:41:29.724Z,3.10
2019-05-29T00:42:29.711Z,3.40
2019-05-29T00:43:29.718Z,3.60
2019-05-29T00:44:34.378Z,3.20
2019-05-29T00:45:30.678Z,3.50
2019-05-29T00:46:29.668Z,3.20
2019-05-29T00:47:29.666Z,3.70
2019-05-29T00:48:29.643Z,3.30
2019-05-29T00:49:42.418Z,3.10
2019-05-29T00:50:29.628Z,3.50
2019-05-29T00:51:29.619Z,3.10
2019-05-29T00:52:29.605Z,3.20
2019-05-29T00:53:29.588Z,3.70
2019-05-29T00:54:29.591Z,3.60
2019-05-29T00:55:29.569Z,3.30
2019-05-29T00:56:29.561Z,3.40
2019-05-29T00:57:29.554Z,3.20
2019-05-29T00:58:29.540Z,3.30
2019-05-29T00:59:29.548Z,3.40
2019-05-29T01:00:29.527Z,3.10
2019-05-29T01:01:29.507Z,3.30
2019-05-29T01:02:29.489Z,3.70
2019-05-29T01:03:29.478Z,3.30
2019-05-29T01:04:29.479Z,3.20
2019-05-29T01:05:29.530Z,3.10
2019-05-29T01:06:29.450Z,3.40
2019-05-29T01:07:29.438Z,3.50
2019-05-29T01:08:29.423Z,3.00
2019-05-29T01:09:29.418Z,2.80
2019-05-29T01:10:29.410Z,3.40
2019-05-29T01:11:29.397Z,3.40
2019-05-29T01:12:29.393Z,3.30
2019-05-29T01:13:29.372Z,3.30
2019-05-29T01:14:29.363Z,3.50
2019-05-29T01:15:29.351Z,3.40
2019-05-29T01:16:29.346Z,3.50
2019-05-29T01:17:29.323Z,3.30
2019-05-29T01:18:29.321Z,3.70
2019-05-29T01:19:29.301Z,3.80
2019-05-29T01:20:41.439Z,3.10
2019-05-29T01:21:29.294Z,3.50
2019-05-29T01:24:29.252Z,3.50
2019-05-29T01:25:29.239Z,3.40
2019-05-29T01:26:29.283Z,3.70
2019-05-29T01:27:29.223Z,3.50
2019-05-29T01:28:29.212Z,3.70
2019-05-29T01:29:29.202Z,3.50
2019-05-29T01:30:29.194Z,3.10
2019-05-29T01:31:29.180Z,3.60
2019-05-29T01:32:29.186Z,3.80
2019-05-29T01:33:29.152Z,3.80
2019-05-29T01:34:29.155Z,4.20
2019-05-29T01:35:29.141Z,3.50
2019-05-29T01:36:29.129Z,3.30
2019-05-29T01:37:29.122Z,3.50
2019-05-29T01:38:29.175Z,3.60
2019-05-29T01:39:29.088Z,3.80
2019-05-29T01:40:29.699Z,3.50
2019-05-29T01:41:29.071Z,4.10
2019-05-29T01:42:29.068Z,4.00
2019-05-29T01:43:29.054Z,3.90
2019-05-29T01:44:29.034Z,3.80
2019-05-29T01:45:29.023Z,3.60
2019-05-29T01:46:29.024Z,3.60
2019-05-29T01:47:29.043Z,3.30
2019-05-29T01:48:28.988Z,3.60
2019-05-29T01:49:28.983Z,3.80
2019-05-29T01:50:28.965Z,3.90
2019-05-29T01:51:40.484Z,3.40
2019-05-29T01:52:28.945Z,3.80
2019-05-29T01:53:28.969Z,3.80
2019-05-29T01:54:28.927Z,3.70
2019-05-29T01:55:28.909Z,3.40
2019-05-29T01:56:28.908Z,3.80
2019-05-29T01:57:28.898Z,3.40
2019-05-29T01:58:28.886Z,4.00
2019-05-29T01:59:28.884Z,4.00
2019-05-29T02:00:28.857Z,3.60
2019-05-29T02:01:28.854Z,3.70
2019-05-29T02:02:28.834Z,3.70
2019-05-29T02:03:28.836Z,3.90
2019-05-29T02:04:28.821Z,3.70
2019-05-29T02:05:28.801Z,3.60
2019-05-29T02:06:28.791Z,3.70
2019-05-29T02:07:28.784Z,3.60
2019-05-29T02:08:28.820Z,3.20
2019-05-29T02:09:28.763Z,3.70
2019-05-29T02:10:28.748Z,4.00
2019-05-29T02:11:32.101Z,3.60
2019-05-29T02:12:28.727Z,3.60
2019-05-29T02:13:28.714Z,3.20
2019-05-29T02:14:28.728Z,3.50
2019-05-29T02:15:33.516Z,3.50
2019-05-29T02:16:29.689Z,3.90
2019-05-29T02:17:28.674Z,3.70
2019-05-29T02:18:28.659Z,3.70
2019-05-29T02:19:28.650Z,4.10
2019-05-29T02:20:28.644Z,3.90
2019-05-29T02:21:28.627Z,3.70
2019-05-29T02:22:40.658Z,4.40
2019-05-29T02:23:28.610Z,3.50
2019-05-29T02:24:28.635Z,3.80
2019-05-29T02:25:28.585Z,3.80
2019-05-29T02:26:28.575Z,3.70
2019-05-29T02:27:28.563Z,4.10
2019-05-29T02:28:28.558Z,3.90
2019-05-29T02:29:28.545Z,3.90
2019-05-29T02:30:30.910Z,3.90
2019-05-29T02:31:28.909Z,4.00
2019-05-29T02:32:28.517Z,4.40
2019-05-29T02:33:28.499Z,4.00
2019-05-29T02:34:30.003Z,3.20
2019-05-29T02:35:29.574Z,3.80
2019-05-29T02:36:28.726Z,3.90
2019-05-29T02:37:29.019Z,4.10
2019-05-29T02:38:29.099Z,4.20
2019-05-29T02:39:29.391Z,4.60
2019-05-29T02:40:30.019Z,4.10
2019-05-29T02:41:29.837Z,4.30
2019-05-29T02:42:29.185Z,4.50
2019-05-29T02:43:29.999Z,4.20
2019-05-29T02:44:29.670Z,4.10
2019-05-29T02:45:50.910Z,4.50
2019-05-29T02:46:30.122Z,3.90
2019-05-29T02:47:30.139Z,4.20
2019-05-29T02:48:30.080Z,4.10
2019-05-29T02:49:30.089Z,3.70
2019-05-29T02:50:29.323Z,4.10
2019-05-29T02:51:28.835Z,3.90
2019-05-29T02:52:29.065Z,4.40
2019-05-29T02:53:39.903Z,3.90
2019-05-29T02:54:30.085Z,4.00
2019-05-29T02:55:28.883Z,4.10
2019-05-29T02:56:29.034Z,4.00
2019-05-29T02:57:29.106Z,3.70
2019-05-29T02:58:29.734Z,4.40
2019-05-29T02:59:29.857Z,3.90
2019-05-29T03:00:29.283Z,4.10
2019-05-29T03:01:29.564Z,3.90
2019-05-29T03:02:30.027Z,4.70
2019-05-29T03:03:31.609Z,4.00
2019-05-29T03:04:30.307Z,4.10
2019-05-29T03:05:28.159Z,4.20
2019-05-29T03:06:28.201Z,4.10
2019-05-29T03:07:30.616Z,3.90
2019-05-29T03:08:31.219Z,4.10
2019-05-29T03:09:28.462Z,4.20
2019-05-29T03:10:28.689Z,4.20
2019-05-29T03:11:29.285Z,3.90
2019-05-29T03:12:29.371Z,4.70
2019-05-29T03:13:29.803Z,4.80
2019-05-29T03:14:29.654Z,4.70
2019-05-29T03:15:29.604Z,4.40
2019-05-29T03:16:28.851Z,4.30
2019-05-29T03:17:29.682Z,4.30
2019-05-29T03:18:28.337Z,4.50
2019-05-29T03:19:28.089Z,4.40
2019-05-29T03:20:28.219Z,4.60
2019-05-29T03:21:28.442Z,4.50
2019-05-29T03:22:28.773Z,4.20
2019-05-29T03:23:29.003Z,4.10
2019-05-29T03:24:39.835Z,4.40
2019-05-29T03:25:28.382Z,4.40
2019-05-29T03:26:30.327Z,4.70
2019-05-29T03:27:27.924Z,4.50
2019-05-29T03:28:27.911Z,4.20
2019-05-29T03:29:28.279Z,4.20
2019-05-29T03:30:33.877Z,4.40
2019-05-29T03:31:35.170Z,4.00
2019-05-29T03:32:32.470Z,4.60
2019-05-29T03:33:36.130Z,4.60
2019-05-29T03:34:34.965Z,4.30
2019-05-29T03:35:34.602Z,4.40
2019-05-29T03:36:37.516Z,4.70
2019-05-29T03:37:30.360Z,4.60
2019-05-29T03:38:28.287Z,4.70
2019-05-29T03:39:28.149Z,4.50
2019-05-29T03:40:29.012Z,4.70
2019-05-29T03:41:28.269Z,4.80
2019-05-29T03:42:28.319Z,4.80
2019-05-29T03:43:28.640Z,4.40
2019-05-29T03:44:28.720Z,4.40
2019-05-29T03:45:28.900Z,4.80
2019-05-29T03:46:35.461Z,4.30
2019-05-29T03:47:28.852Z,5.10
2019-05-29T03:48:27.890Z,4.60
2019-05-29T03:49:29.157Z,4.50
2019-05-29T03:50:29.388Z,5.00
2019-05-29T03:51:29.487Z,4.70
2019-05-29T03:52:28.363Z,4.30
2019-05-29T03:53:29.202Z,5.00
2019-05-29T03:54:28.825Z,4.60
2019-05-29T03:55:39.559Z,4.90
2019-05-29T03:56:28.247Z,5.10
2019-05-29T03:57:27.826Z,5.00
2019-05-29T03:58:28.876Z,5.00
2019-05-29T03:59:28.591Z,5.20
2019-05-29T04:00:31.878Z,5.00
2019-05-29T04:01:29.112Z,5.00
2019-05-29T04:02:28.740Z,4.90
2019-05-29T04:03:28.942Z,4.60
2019-05-29T04:04:28.936Z,4.60
2019-05-29T04:05:29.011Z,4.50
2019-05-29T04:06:28.928Z,4.70
2019-05-29T04:07:29.139Z,5.00
2019-05-29T04:08:29.255Z,4.60
2019-05-29T04:09:29.072Z,5.00
2019-05-29T04:10:29.191Z,5.20
2019-05-29T04:11:27.934Z,6.00
2019-05-29T04:12:27.431Z,4.70
2019-05-29T04:13:29.133Z,5.20
2019-05-29T04:14:27.725Z,5.50
2019-05-29T04:15:27.584Z,5.50
2019-05-29T04:16:27.769Z,5.10
2019-05-29T04:17:27.362Z,4.90
2019-05-29T04:18:27.670Z,5.00
2019-05-29T04:19:27.814Z,5.00
2019-05-29T04:20:27.606Z,5.30
2019-05-29T04:21:27.918Z,5.50
2019-05-29T04:22:28.203Z,5.20
2019-05-29T04:23:27.836Z,5.10
2019-05-29T04:24:27.896Z,5.40
2019-05-29T04:25:32.060Z,6.10
2019-05-29T04:27:41.368Z,4.90
2019-05-29T04:28:41.378Z,5.90
2019-05-29T04:29:41.346Z,5.70
2019-05-29T04:30:41.342Z,5.90
2019-05-29T04:31:41.322Z,5.80
2019-05-29T04:32:41.320Z,5.60
2019-05-29T04:33:41.307Z,5.90
2019-05-29T04:34:41.325Z,5.30
2019-05-29T04:35:41.278Z,5.60
2019-05-29T04:36:41.272Z,5.50
2019-05-29T04:37:41.258Z,5.80
2019-05-29T04:38:41.269Z,5.80
2019-05-29T04:39:41.238Z,5.40
2019-05-29T04:40:41.220Z,5.80
2019-05-29T04:41:41.216Z,6.00
2019-05-29T04:42:41.205Z,5.60
2019-05-29T04:43:41.185Z,6.00
2019-05-29T04:44:41.431Z,6.60
2019-05-29T04:45:41.164Z,6.60
2019-05-29T04:46:41.159Z,6.60
2019-05-29T04:47:41.154Z,6.50
2019-05-29T04:48:41.139Z,7.10
2019-05-29T04:49:41.129Z,6.20
2019-05-29T04:50:41.129Z,6.20
2019-05-29T04:51:41.098Z,6.80
2019-05-29T04:52:41.090Z,6.50
2019-05-29T04:53:41.090Z,6.20
2019-05-29T04:54:41.073Z,6.90
2019-05-29T04:55:41.057Z,6.10
2019-05-29T04:56:41.106Z,6.50
2019-05-29T04:57:53.615Z,6.00
2019-05-29T04:58:41.018Z,6.70
2019-05-29T04:59:41.028Z,6.90
2019-05-29T05:00:56.044Z,6.80
2019-05-29T05:01:41.986Z,6.20
2019-05-29T05:02:41.027Z,6.50
2019-05-29T05:03:40.963Z,7.00
2019-05-29T05:04:40.980Z,6.90
2019-05-29T05:05:40.954Z,7.50
2019-05-29T05:06:40.931Z,6.80
2019-05-29T05:07:40.927Z,7.50
2019-05-29T05:08:40.946Z,7.10
2019-05-29T05:09:40.910Z,7.40
2019-05-29T05:10:41.335Z,7.30
2019-05-29T05:11:40.878Z,7.60
2019-05-29T05:12:40.881Z,7.10
2019-05-29T05:13:40.917Z,7.40
2019-05-29T05:14:40.847Z,7.50
2019-05-29T05:15:40.853Z,7.10
2019-05-29T05:16:40.841Z,7.20
2019-05-29T05:17:40.834Z,7.70
2019-05-29T05:18:40.809Z,7.40
2019-05-29T05:19:40.847Z,7.40
2019-05-29T05:20:40.780Z,7.20
2019-05-29T05:21:40.830Z,8.20
2019-05-29T05:22:41.116Z,7.60
2019-05-29T05:23:41.038Z,7.80
2019-05-29T05:24:43.852Z,8.20
2019-05-29T05:25:41.140Z,7.30
2019-05-29T05:26:55.095Z,8.30
2019-05-29T05:27:40.779Z,7.90
2019-05-29T05:28:52.740Z,7.90
2019-05-29T05:29:40.703Z,8.60
2019-05-29T05:30:40.925Z,8.20
2019-05-29T05:31:40.933Z,8.40
2019-05-29T05:32:41.136Z,8.00
2019-05-29T05:33:41.161Z,9.40
2019-05-29T05:34:41.019Z,8.70
2019-05-29T05:35:41.002Z,8.50
2019-05-29T05:36:41.065Z,8.10
2019-05-29T05:37:41.067Z,9.40
2019-05-29T05:38:41.212Z,9.30
2019-05-29T05:39:41.206Z,9.70
2019-05-29T05:40:43.017Z,10.50
2019-05-29T05:41:41.087Z,10.30
2019-05-29T05:42:41.258Z,10.40
2019-05-29T05:43:41.430Z,10.10
2019-05-29T05:44:41.158Z,10.40
2019-05-29T05:45:41.205Z,10.30
2019-05-29T05:46:41.298Z,11.10
2019-05-29T05:47:54.164Z,10.80
2019-05-29T05:48:41.784Z,11.50
2019-05-29T05:49:41.798Z,11.60
2019-05-29T05:50:41.482Z,10.80
2019-05-29T05:51:43.190Z,11.20
2019-05-29T05:52:41.544Z,10.80
2019-05-29T05:53:41.559Z,10.70
2019-05-29T05:54:41.537Z,11.10
2019-05-29T05:55:41.714Z,10.80
2019-05-29T05:56:41.698Z,12.00
2019-05-29T05:57:41.742Z,11.30
2019-05-29T05:58:40.383Z,12.50
2019-05-29T06:02:42.008Z,11.90
2019-05-29T06:04:40.383Z,11.30
2019-05-29T06:05:40.402Z,11.40
2019-05-29T06:09:40.496Z,10.90
2019-05-29T06:12:40.585Z,10.50
2019-05-29T06:20:41.016Z,9.30
2019-05-29T06:30:52.233Z,8.70
2019-05-29T06:51:39.798Z,6.00
2019-05-29T07:01:51.596Z,5.10
2019-05-29T07:11:39.819Z,4.30
2019-05-29T07:12:40.312Z,4.40
2019-05-29T07:13:41.774Z,3.90
2019-05-29T07:14:40.275Z,3.80
2019-05-29T07:15:40.778Z,3.70
2019-05-29T07:16:48.635Z,3.40
2019-05-29T07:17:40.546Z,3.50
2019-05-29T07:18:45.352Z,3.40
2019-05-29T07:19:54.332Z,3.80
2019-05-29T07:20:40.699Z,3.20
2019-05-29T07:21:40.724Z,3.30
2019-05-29T07:22:40.784Z,3.30
2019-05-29T07:23:41.118Z,3.30
2019-05-29T07:24:41.102Z,2.90
2019-05-29T07:26:39.481Z,2.90
2019-05-29T07:27:40.785Z,3.40
2019-05-29T07:28:58.768Z,3.10
2019-05-29T07:29:41.266Z,3.00
2019-05-29T07:30:46.888Z,3.10
2019-05-29T07:31:40.939Z,2.90
2019-05-29T07:32:57.371Z,2.70
2019-05-29T07:33:41.049Z,3.00
2019-05-29T07:34:53.758Z,3.10
2019-05-29T07:35:41.394Z,3.60
2019-05-29T07:36:39.921Z,3.40
2019-05-29T07:37:39.766Z,2.80
2019-05-29T07:38:39.667Z,2.80
2019-05-29T07:39:39.478Z,2.90
2019-05-29T07:40:40.706Z,2.90
2019-05-29T07:41:39.597Z,2.20
2019-05-29T07:46:39.999Z,3.20
2019-05-29T07:53:40.118Z,2.50
2019-05-29T08:01:02.597Z,1.90
2019-05-29T08:03:51.479Z,1.80
2019-05-29T08:24:38.749Z,2.10
2019-05-29T08:31:38.677Z,1.80
2019-05-29T08:34:51.307Z,1.80
2019-05-29T08:45:38.527Z,1.80
2019-05-29T08:55:38.407Z,2.00
2019-05-29T09:02:38.426Z,2.40
2019-05-29T09:03:38.329Z,2.50
2019-05-29T09:04:38.306Z,2.70
2019-05-29T09:06:06.095Z,2.80
2019-05-29T09:06:39.393Z,3.10
2019-05-29T09:07:38.273Z,2.90
2019-05-29T09:08:38.271Z,2.80
2019-05-29T09:09:38.255Z,3.30
2019-05-29T09:10:38.284Z,3.20
2019-05-29T09:11:38.239Z,3.40
2019-05-29T09:12:38.240Z,3.10
2019-05-29T09:13:38.215Z,3.40
2019-05-29T09:14:39.039Z,3.40
2019-05-29T09:15:38.186Z,3.60
2019-05-29T09:16:38.191Z,3.00
2019-05-29T09:17:38.173Z,3.50
2019-05-29T09:18:38.255Z,3.80
2019-05-29T09:19:38.148Z,3.40
2019-05-29T09:21:00.829Z,3.70
2019-05-29T09:21:39.128Z,3.40
2019-05-29T09:22:39.080Z,3.60
2019-05-29T09:23:38.105Z,3.60
2019-05-29T09:24:38.125Z,3.90
2019-05-29T09:25:38.075Z,3.60
2019-05-29T09:26:38.979Z,3.70
2019-05-29T09:27:38.071Z,3.40
2019-05-29T09:28:38.040Z,3.60
2019-05-29T09:29:38.040Z,3.80
2019-05-29T09:30:38.252Z,3.70
2019-05-29T09:31:38.007Z,3.10
2019-05-29T09:32:50.420Z,3.50
2019-05-29T09:33:38.982Z,3.30
2019-05-29T09:34:38.477Z,3.10
2019-05-29T09:35:37.992Z,3.20
2019-05-29T09:36:50.105Z,2.80
2019-05-29T09:37:37.937Z,3.20
2019-05-29T09:38:37.939Z,3.30
2019-05-29T09:39:37.920Z,2.70
2019-05-29T09:40:37.944Z,2.60
2019-05-29T09:41:37.900Z,2.90
2019-05-29T09:42:37.899Z,3.10
2019-05-29T09:43:37.870Z,2.90
2019-05-29T09:44:39.908Z,2.90
2019-05-29T09:45:37.873Z,3.00
2019-05-29T09:46:37.884Z,3.00
2019-05-29T09:47:37.831Z,3.00
2019-05-29T09:48:49.282Z,3.10
2019-05-29T09:49:38.815Z,2.80
2019-05-29T09:50:49.450Z,3.00
2019-05-29T09:51:38.808Z,3.30
2019-05-29T09:52:37.803Z,3.20
2019-05-29T09:53:37.763Z,3.00
2019-05-29T09:54:37.825Z,2.90
2019-05-29T09:55:37.750Z,2.90
2019-05-29T09:56:37.737Z,3.10
2019-05-29T09:57:37.759Z,2.90
2019-05-29T09:58:37.788Z,2.80
2019-05-29T09:59:37.715Z,3.00
2019-05-29T10:00:37.713Z,2.70
2019-05-29T10:01:37.755Z,3.00
2019-05-29T10:02:37.660Z,3.00
2019-05-29T10:03:37.666Z,2.90
2019-05-29T10:04:37.638Z,2.60
2019-05-29T10:05:37.628Z,2.60
2019-05-29T10:06:38.549Z,3.00
2019-05-29T10:07:49.086Z,3.00
2019-05-29T10:08:37.602Z,2.60
2019-05-29T10:09:37.588Z,2.90
2019-05-29T10:10:37.583Z,3.20
2019-05-29T10:11:37.566Z,2.90
2019-05-29T10:12:37.612Z,2.80
2019-05-29T10:13:37.562Z,2.80
2019-05-29T10:14:37.628Z,2.70
2019-05-29T10:15:37.525Z,2.60
2019-05-29T10:16:37.556Z,2.80
2019-05-29T10:17:37.563Z,2.70
2019-05-29T10:18:37.577Z,2.40
2019-05-29T10:19:37.476Z,2.70
2019-05-29T10:20:37.464Z,2.30
2019-05-29T10:21:40.549Z,2.30
2019-05-29T10:22:37.443Z,2.50
2019-05-29T10:23:37.465Z,2.30
2019-05-29T10:24:37.441Z,2.20
2019-05-29T10:25:37.432Z,2.40
2019-05-29T10:26:37.403Z,2.30
2019-05-29T10:27:37.398Z,2.20
2019-05-29T10:28:50.310Z,1.90
2019-05-29T10:29:38.393Z,2.00
2019-05-29T10:30:37.349Z,2.10
2019-05-29T10:31:37.349Z,1.60
2019-05-29T10:32:37.336Z,1.80
2019-05-29T10:33:37.322Z,1.70
2019-05-29T10:34:37.462Z,1.70
2019-05-29T10:35:37.300Z,1.90
2019-05-29T10:36:37.305Z,1.90
2019-05-29T10:37:37.282Z,1.70
2019-05-29T10:38:48.926Z,1.70
2019-05-29T10:39:37.252Z,1.60
2019-05-29T10:40:37.306Z,1.70
2019-05-29T10:41:37.227Z,2.30
2019-05-29T10:42:37.216Z,1.70
2019-05-29T10:43:37.215Z,1.60
2019-05-29T10:44:37.209Z,1.60
2019-05-29T10:45:37.188Z,1.80
2019-05-29T10:46:37.194Z,1.60
2019-05-29T10:47:37.181Z,1.80
2019-05-29T10:48:37.165Z,1.50
2019-05-29T10:49:37.139Z,1.80
2019-05-29T10:50:37.144Z,2.10
2019-05-29T10:51:37.150Z,1.50
2019-05-29T10:52:37.117Z,1.50
2019-05-29T10:53:37.120Z,1.90
2019-05-29T10:54:39.215Z,1.80
2019-05-29T10:55:37.078Z,1.50
2019-05-29T10:56:37.094Z,1.60
2019-05-29T10:57:37.059Z,1.80
2019-05-29T10:58:48.508Z,2.00
2019-05-29T10:59:38.072Z,1.80
2019-05-29T11:00:39.019Z,1.80
2019-05-29T11:01:37.008Z,1.70
2019-05-29T11:02:37.003Z,1.90
2019-05-29T11:03:36.993Z,1.80
2019-05-29T11:04:36.974Z,1.70
2019-05-29T11:05:37.024Z,1.90
2019-05-29T11:06:40.613Z,1.70
2019-05-29T11:07:36.941Z,1.80
2019-05-29T11:08:36.929Z,1.70
2019-05-29T11:09:48.664Z,1.70
2019-05-29T11:10:36.921Z,1.50
2019-05-29T11:11:36.934Z,1.60
2019-05-29T11:12:39.215Z,1.40
2019-05-29T11:13:36.875Z,1.50
2019-05-29T11:14:36.871Z,1.40
2019-05-29T11:15:36.858Z,1.30
2019-05-29T11:16:39.752Z,1.40
2019-05-29T11:17:36.844Z,1.20
2019-05-29T11:18:36.841Z,1.30
2019-05-29T11:19:36.813Z,1.40
2019-05-29T11:20:36.801Z,1.20
2019-05-29T11:21:36.787Z,1.30
2019-05-29T11:22:36.799Z,1.50
2019-05-29T11:23:36.770Z,1.00
2019-05-29T11:24:36.760Z,1.10
2019-05-29T11:25:36.747Z,1.30
2019-05-29T11:26:36.733Z,1.40
2019-05-29T11:27:36.768Z,1.20
2019-05-29T11:28:36.710Z,1.20
2019-05-29T11:29:36.718Z,1.40
2019-05-29T11:30:36.702Z,1.20
2019-05-29T11:31:36.680Z,1.30
2019-05-29T11:32:36.712Z,1.20
2019-05-29T11:33:36.666Z,1.10
2019-05-29T11:34:36.648Z,1.40
2019-05-29T11:35:37.585Z,1.00
2019-05-29T11:36:36.620Z,1.30
2019-05-29T11:37:36.618Z,1.10
2019-05-29T11:38:36.611Z,1.10
2019-05-29T11:39:36.585Z,0.90
2019-05-29T11:41:00.765Z,1.20
2019-05-29T11:41:37.581Z,1.40
2019-05-29T11:42:36.554Z,1.10
2019-05-29T11:43:36.547Z,1.00
2019-05-29T11:44:36.650Z,1.00
2019-05-29T11:45:36.572Z,1.20
2019-05-29T11:46:36.516Z,1.10
2019-05-29T11:47:36.517Z,0.90
2019-05-29T11:48:36.516Z,1.00
2019-05-29T11:49:36.480Z,0.90
2019-05-29T11:50:36.485Z,1.10
2019-05-29T11:51:36.464Z,1.00
2019-05-29T11:52:42.797Z,1.30
2019-05-29T11:53:37.436Z,0.90
2019-05-29T11:54:36.467Z,1.00
2019-05-29T11:55:36.436Z,0.80
2019-05-29T11:56:36.414Z,0.90
2019-05-29T11:57:39.474Z,0.90
2019-05-29T11:58:36.386Z,0.90
2019-05-29T11:59:36.373Z,1.10
2019-05-29T12:00:36.407Z,0.90
2019-05-29T12:01:49.659Z,0.90
2019-05-29T12:02:37.394Z,0.70
2019-05-29T12:03:36.333Z,0.90
2019-05-29T12:04:36.327Z,0.80
2019-05-29T12:05:36.314Z,0.90
2019-05-29T12:06:36.315Z,1.00
2019-05-29T12:07:36.296Z,0.90
2019-05-29T12:08:36.286Z,0.90
2019-05-29T12:09:36.513Z,0.60
2019-05-29T12:10:36.264Z,0.70
2019-05-29T12:11:49.046Z,0.90
2019-05-29T12:12:36.236Z,0.70
2019-05-29T12:13:36.227Z,1.10
2019-05-29T12:14:58.020Z,0.90
2019-05-29T12:15:37.206Z,0.70
2019-05-29T12:16:36.220Z,0.60
2019-05-29T12:17:36.236Z,0.70
2019-05-29T12:18:36.172Z,0.70
2019-05-29T12:19:36.161Z,1.00
2019-05-29T12:20:36.139Z,0.70
2019-05-29T12:21:36.203Z,0.70
2019-05-29T12:22:36.140Z,0.70
2019-05-29T12:23:36.104Z,0.80
2019-05-29T12:24:36.098Z,0.90
2019-05-29T12:25:36.092Z,0.70
2019-05-29T12:26:36.078Z,0.60
2019-05-29T12:27:36.082Z,0.80
2019-05-29T12:28:36.089Z,0.80
2019-05-29T12:29:36.041Z,0.80
2019-05-29T12:30:36.040Z,0.70
2019-05-29T12:31:36.016Z,0.60
2019-05-29T12:32:36.044Z,0.60
2019-05-29T12:33:36.015Z,0.70
2019-05-29T12:34:35.984Z,1.00
2019-05-29T12:35:36.003Z,0.80
2019-05-29T12:36:35.972Z,0.60
2019-05-29T12:37:35.961Z,0.80
2019-05-29T12:38:35.961Z,0.80
2019-05-29T12:39:35.973Z,0.80
2019-05-29T12:40:35.973Z,0.80
2019-05-29T12:41:36.642Z,1.20
2019-05-29T12:42:48.686Z,1.10
2019-05-29T12:43:35.895Z,0.70
2019-05-29T12:44:35.882Z,0.70
2019-05-29T12:45:35.867Z,1.00
2019-05-29T12:46:35.857Z,0.80
2019-05-29T12:47:35.843Z,0.80
2019-05-29T12:48:35.839Z,0.90
2019-05-29T12:49:35.825Z,0.90
2019-05-29T12:50:35.814Z,0.80
2019-05-29T12:51:35.833Z,0.80
2019-05-29T12:52:35.798Z,0.80
2019-05-29T12:53:35.798Z,0.80
2019-05-29T12:54:35.763Z,0.70
2019-05-29T12:55:35.763Z,0.80
2019-05-29T12:56:35.743Z,0.70
2019-05-29T12:57:35.735Z,0.90
2019-05-29T12:58:35.771Z,1.00
2019-05-29T12:59:35.711Z,0.70
2019-05-29T13:00:35.703Z,0.80
2019-05-29T13:01:35.697Z,0.80
2019-05-29T13:02:35.688Z,0.90
2019-05-29T13:03:35.668Z,1.00
2019-05-29T13:05:07.049Z,0.80
2019-05-29T13:05:36.644Z,0.70
2019-05-29T13:06:35.636Z,1.00
2019-05-29T13:07:35.636Z,0.90
2019-05-29T13:08:35.614Z,2.20
2019-05-29T13:09:35.618Z,1.10
2019-05-29T13:10:35.599Z,1.00
2019-05-29T13:11:35.588Z,0.90
2019-05-29T13:12:35.711Z,0.90
2019-05-29T13:13:35.558Z,1.00
2019-05-29T13:14:35.573Z,0.80
2019-05-29T13:15:35.598Z,0.80
2019-05-29T13:16:35.526Z,1.20
2019-05-29T13:17:35.524Z,1.00
2019-05-29T13:18:35.550Z,0.90
2019-05-29T13:19:35.507Z,0.80
2019-05-29T13:20:35.488Z,0.80
2019-05-29T13:21:35.491Z,1.00
2019-05-29T13:22:35.469Z,0.90
2019-05-29T13:23:44.666Z,0.70
2019-05-29T13:24:36.558Z,1.00
2019-05-29T13:25:35.442Z,0.90
2019-05-29T13:26:35.425Z,1.00
2019-05-29T13:27:35.412Z,0.70
2019-05-29T13:28:35.403Z,1.00
2019-05-29T13:29:35.389Z,0.90
2019-05-29T13:30:35.395Z,0.80
2019-05-29T13:31:35.415Z,0.80
2019-05-29T13:32:35.353Z,0.80
2019-05-29T13:33:35.345Z,0.90
2019-05-29T13:34:35.607Z,0.80
2019-05-29T13:35:47.294Z,1.00
2019-05-29T13:36:35.310Z,1.20
2019-05-29T13:37:35.297Z,0.90
2019-05-29T13:38:35.333Z,1.00
2019-05-29T13:39:35.278Z,0.90
2019-05-29T13:40:35.284Z,1.00
2019-05-29T13:41:35.290Z,1.00
2019-05-29T13:42:35.244Z,0.70
2019-05-29T13:43:35.241Z,0.80
2019-05-29T13:44:35.237Z,0.80
2019-05-29T13:45:35.217Z,1.20
2019-05-29T13:46:35.198Z,1.10
2019-05-29T13:47:35.198Z,1.00
2019-05-29T13:48:35.176Z,0.80
2019-05-29T13:49:35.172Z,1.00
2019-05-29T13:50:35.204Z,1.00
2019-05-29T13:51:35.141Z,2.40
2019-05-29T13:52:35.152Z,1.60
2019-05-29T13:53:35.151Z,2.00
2019-05-29T13:54:35.106Z,1.20
2019-05-29T13:55:35.099Z,1.00
2019-05-29T13:56:35.086Z,0.90
2019-05-29T13:57:35.264Z,0.90
2019-05-29T13:58:35.063Z,0.90
2019-05-29T13:59:35.059Z,0.90
2019-05-29T14:00:35.346Z,0.80
2019-05-29T14:01:35.034Z,0.90
2019-05-29T14:02:35.060Z,1.10
2019-05-29T14:03:35.010Z,1.10
2019-05-29T14:04:34.999Z,0.80
2019-05-29T14:05:35.004Z,0.80
2019-05-29T14:06:46.562Z,0.90
2019-05-29T14:07:34.961Z,1.10
2019-05-29T14:08:34.961Z,0.90
2019-05-29T14:09:34.940Z,1.00
2019-05-29T14:10:34.931Z,1.10
2019-05-29T14:11:34.914Z,0.90
2019-05-29T14:12:34.921Z,0.90
2019-05-29T14:13:34.915Z,0.80
2019-05-29T14:14:34.904Z,1.00
2019-05-29T14:15:34.885Z,1.20
2019-05-29T14:16:34.914Z,1.00
2019-05-29T14:17:35.007Z,1.00
2019-05-29T14:18:34.857Z,1.10
2019-05-29T14:19:34.826Z,1.30
2019-05-29T14:20:34.838Z,1.30
2019-05-29T14:21:34.812Z,1.10
2019-05-29T14:22:34.798Z,1.20
2019-05-29T14:23:34.821Z,1.00
2019-05-29T14:24:34.775Z,1.30
2019-05-29T14:25:34.772Z,1.20
2019-05-29T14:26:34.766Z,1.00
2019-05-29T14:27:34.744Z,1.10
2019-05-29T14:28:34.726Z,1.10
2019-05-29T14:29:34.747Z,1.00
2019-05-29T14:30:34.724Z,1.10
2019-05-29T14:31:34.706Z,1.00
2019-05-29T14:32:34.687Z,1.10
2019-05-29T14:33:34.686Z,1.10
2019-05-29T14:34:34.677Z,1.10
2019-05-29T14:35:34.673Z,1.50
2019-05-29T14:36:34.645Z,1.20
2019-05-29T14:37:46.243Z,1.30
2019-05-29T14:38:34.623Z,1.40
2019-05-29T14:39:34.650Z,1.40
2019-05-29T14:40:34.604Z,1.30
2019-05-29T14:41:34.592Z,1.20
2019-05-29T14:42:34.582Z,1.10
2019-05-29T14:43:34.567Z,1.20
2019-05-29T14:44:34.557Z,1.30
2019-05-29T14:45:34.568Z,1.30
2019-05-29T14:46:34.536Z,1.30
2019-05-29T14:47:34.549Z,1.20
2019-05-29T14:48:34.514Z,1.40
2019-05-29T14:49:34.507Z,1.30
2019-05-29T14:50:34.498Z,1.40
2019-05-29T14:51:34.483Z,1.20
2019-05-29T14:52:34.484Z,1.60
2019-05-29T14:53:34.459Z,1.10
2019-05-29T14:54:41.652Z,1.30
2019-05-29T14:55:35.474Z,1.00
2019-05-29T14:56:34.529Z,1.40
2019-05-29T14:57:34.417Z,1.50
2019-05-29T14:58:34.405Z,1.60
2019-05-29T14:59:34.414Z,1.30
2019-05-29T15:00:34.384Z,1.30
2019-05-29T15:01:34.380Z,1.40
2019-05-29T15:02:34.361Z,2.00
2019-05-29T15:03:34.448Z,1.70
2019-05-29T15:04:34.343Z,1.10
2019-05-29T15:05:34.324Z,1.20
2019-05-29T15:06:34.334Z,1.40
2019-05-29T15:07:34.317Z,1.30
2019-05-29T15:08:46.644Z,1.10
2019-05-29T15:09:34.285Z,1.20
2019-05-29T15:10:34.271Z,1.30
2019-05-29T15:11:34.284Z,1.20
2019-05-29T15:12:34.287Z,1.20
2019-05-29T15:13:34.243Z,1.10
2019-05-29T15:14:34.236Z,1.30
2019-05-29T15:15:34.223Z,1.20
2019-05-29T15:16:34.210Z,1.50
2019-05-29T15:17:34.190Z,1.30
2019-05-29T15:18:34.203Z,1.20
2019-05-29T15:19:34.174Z,1.50
2019-05-29T15:20:34.178Z,1.10
2019-05-29T15:21:34.185Z,1.20
2019-05-29T15:22:34.144Z,1.20
2019-05-29T15:23:34.141Z,1.00
2019-05-29T15:24:34.127Z,1.30
2019-05-29T15:25:34.105Z,1.40
2019-05-29T15:26:34.158Z,1.00
2019-05-29T15:27:34.167Z,1.60
2019-05-29T15:28:34.112Z,1.70
2019-05-29T15:29:34.065Z,1.40
2019-05-29T15:30:34.054Z,1.30
2019-05-29T15:31:34.057Z,1.20
2019-05-29T15:32:34.039Z,1.30
2019-05-29T15:33:34.048Z,1.20
2019-05-29T15:34:34.026Z,1.00
2019-05-29T15:35:33.998Z,1.10
2019-05-29T15:36:33.994Z,1.50
2019-05-29T15:37:33.985Z,1.20